createdAt,value
2022-09-14T00:01:27.813Z,22.20
2022-09-14T00:03:55.895Z,22.23
2022-09-14T00:06:24.061Z,22.24
2022-09-14T00:08:52.713Z,22.23
2022-09-14T00:11:21.152Z,22.16
2022-09-14T00:13:48.386Z,22.17
2022-09-14T00:16:17.789Z,22.22
2022-09-14T00:18:45.605Z,22.28
2022-09-14T00:21:13.029Z,22.26
2022-09-14T00:23:41.172Z,22.28
2022-09-14T00:26:10.127Z,22.23
2022-09-14T00:28:42.243Z,22.10
2022-09-14T00:31:09.947Z,22.05
2022-09-14T00:34:11.577Z,22.13
2022-09-14T00:36:40.398Z,22.15
2022-09-14T00:39:08.749Z,22.16
2022-09-14T00:41:37.376Z,22.25
2022-09-14T00:44:04.609Z,22.25
2022-09-14T00:46:42.370Z,22.17
2022-09-14T00:49:24.165Z,22.15
2022-09-14T00:51:54.395Z,22.12
2022-09-14T00:54:21.750Z,22.00
2022-09-14T00:56:49.492Z,21.93
2022-09-14T00:59:20.657Z,21.80
2022-09-14T01:01:48.355Z,21.68
2022-09-14T01:04:15.629Z,21.56
2022-09-14T01:06:54.904Z,21.56
2022-09-14T01:09:34.105Z,21.57
2022-09-14T01:12:04.353Z,21.63
2022-09-14T01:14:31.857Z,21.65
2022-09-14T01:17:06.814Z,21.67
2022-09-14T01:19:34.202Z,21.70
2022-09-14T01:22:06.418Z,21.59
2022-09-14T01:24:33.577Z,21.48
2022-09-14T01:27:19.454Z,21.47
2022-09-14T01:29:55.238Z,21.49
2022-09-14T01:32:41.042Z,21.54
2022-09-14T01:35:34.511Z,21.58
2022-09-14T01:38:04.057Z,21.57
2022-09-14T01:40:37.344Z,21.69
2022-09-14T01:43:15.136Z,21.68
2022-09-14T01:45:45.329Z,21.68
2022-09-14T01:48:15.312Z,21.66
2022-09-14T01:50:51.289Z,21.75
2022-09-14T01:53:28.623Z,21.80
2022-09-14T01:56:02.968Z,21.84
2022-09-14T01:58:30.119Z,21.85
2022-09-14T02:00:59.435Z,21.93
2022-09-14T02:03:29.887Z,22.05
2022-09-14T02:08:27.428Z,21.87
2022-09-14T02:10:54.692Z,21.79
2022-09-14T02:13:21.933Z,21.73
2022-09-14T02:15:49.208Z,21.79
2022-09-14T02:18:16.782Z,21.79
2022-09-14T02:20:48.833Z,21.70
2022-09-14T02:23:17.211Z,21.62
2022-09-14T02:25:44.977Z,21.62
2022-09-14T02:28:12.573Z,21.63
2022-09-14T02:31:00.209Z,21.81
2022-09-14T02:33:30.450Z,21.68
2022-09-14T02:36:02.269Z,21.63
2022-09-14T02:38:35.869Z,21.68
2022-09-14T02:41:06.804Z,21.66
2022-09-14T02:43:48.148Z,21.63
2022-09-14T02:46:38.600Z,21.60
2022-09-14T02:49:12.420Z,21.55
2022-09-14T02:51:58.529Z,21.58
2022-09-14T02:54:31.888Z,21.55
2022-09-14T02:57:02.529Z,21.34
2022-09-14T02:59:30.173Z,21.07
2022-09-14T03:01:59.050Z,21.08
2022-09-14T03:04:26.355Z,20.89
2022-09-14T03:06:53.586Z,20.81
2022-09-14T03:09:20.801Z,20.94
2022-09-14T03:11:48.003Z,21.00
2022-09-14T03:14:15.229Z,21.05
2022-09-14T03:16:42.425Z,21.10
2022-09-14T03:19:12.244Z,21.17
2022-09-14T03:21:39.915Z,21.21
2022-09-14T03:24:07.659Z,21.24
2022-09-14T03:26:36.979Z,21.35
2022-09-14T03:29:05.545Z,21.22
2022-09-14T03:31:33.585Z,21.18
2022-09-14T03:34:38.302Z,21.13
2022-09-14T03:37:06.420Z,21.10
2022-09-14T03:39:33.618Z,21.04
2022-09-14T03:42:00.820Z,20.93
2022-09-14T03:44:28.121Z,20.83
2022-09-14T03:46:55.297Z,20.81
2022-09-14T03:49:22.469Z,20.73
2022-09-14T03:51:49.678Z,20.71
2022-09-14T03:54:17.001Z,20.74
2022-09-14T03:56:44.172Z,20.69
2022-09-14T03:59:11.377Z,20.71
2022-09-14T04:01:38.579Z,20.73
2022-09-14T04:04:05.992Z,20.52
2022-09-14T04:06:33.166Z,20.37
2022-09-14T04:09:00.350Z,20.49
2022-09-14T04:11:28.956Z,20.55
2022-09-14T04:13:56.109Z,20.51
2022-09-14T04:16:23.386Z,20.49
2022-09-14T04:18:50.603Z,20.49
2022-09-14T04:21:19.263Z,20.23
2022-09-14T04:24:10.503Z,20.15
2022-09-14T04:26:34.255Z,20.19
2022-09-14T04:29:01.705Z,20.13
2022-09-14T04:31:30.167Z,20.27
2022-09-14T04:33:57.477Z,20.40
2022-09-14T04:36:28.784Z,20.40
2022-09-14T04:38:59.007Z,20.30
2022-09-14T04:41:26.620Z,20.40
2022-09-14T04:43:54.468Z,20.45
2022-09-14T04:46:26.136Z,20.43
2022-09-14T04:48:53.706Z,20.48
2022-09-14T04:51:22.740Z,20.37
2022-09-14T04:53:51.236Z,20.24
2022-09-14T04:56:19.564Z,20.22
2022-09-14T04:58:51.472Z,20.28
2022-09-14T05:01:22.638Z,20.39
2022-09-14T05:03:50.529Z,20.43
2022-09-14T05:06:21.837Z,20.38
2022-09-14T05:08:49.602Z,20.35
2022-09-14T05:11:18.595Z,20.36
2022-09-14T05:13:49.670Z,20.37
2022-09-14T05:16:22.300Z,20.46
2022-09-14T05:18:50.381Z,20.43
2022-09-14T05:21:18.722Z,20.36
2022-09-14T05:23:46.737Z,20.35
2022-09-14T05:26:14.606Z,20.38
2022-09-14T05:28:41.868Z,20.37
2022-09-14T05:31:10.203Z,20.33
2022-09-14T05:33:37.544Z,20.37
2022-09-14T05:36:06.149Z,20.44
2022-09-14T05:38:34.553Z,20.40
2022-09-14T05:41:01.889Z,20.43
2022-09-14T05:43:29.584Z,20.50
2022-09-14T05:46:00.698Z,20.56
2022-09-14T05:48:30.784Z,20.49
2022-09-14T05:50:59.158Z,20.51
2022-09-14T05:53:26.733Z,20.65
2022-09-14T05:56:06.971Z,20.49
2022-09-14T05:58:36.348Z,20.41
2022-09-14T06:01:09.805Z,20.45
2022-09-14T06:03:37.183Z,20.71
2022-09-14T06:06:05.476Z,20.78
2022-09-14T06:08:33.421Z,20.79
2022-09-14T06:11:08.042Z,20.80
2022-09-14T06:13:35.741Z,20.80
2022-09-14T06:16:13.334Z,20.92
2022-09-14T06:18:41.250Z,21.00
2022-09-14T06:21:09.265Z,21.05
2022-09-14T06:23:36.919Z,21.11
2022-09-14T06:26:04.892Z,21.16
2022-09-14T06:28:32.633Z,21.22
2022-09-14T06:31:00.247Z,21.23
2022-09-14T06:33:27.464Z,21.26
2022-09-14T06:35:58.864Z,21.35
2022-09-14T06:38:26.835Z,21.49
2022-09-14T06:40:53.947Z,21.67
2022-09-14T06:43:21.177Z,21.88
2022-09-14T06:46:04.841Z,21.98
2022-09-14T06:48:34.369Z,22.04
2022-09-14T06:51:10.580Z,21.99
2022-09-14T06:53:37.716Z,22.04
2022-09-14T06:56:05.203Z,22.03
2022-09-14T06:58:33.890Z,22.09
2022-09-14T07:01:01.943Z,22.14
2022-09-14T07:03:29.125Z,22.26
2022-09-14T07:06:06.573Z,22.33
2022-09-14T07:08:34.668Z,22.66
2022-09-14T07:11:01.858Z,22.64
2022-09-14T07:13:29.850Z,22.70
2022-09-14T07:15:57.048Z,22.71
2022-09-14T07:18:30.033Z,22.85
2022-09-14T07:21:05.295Z,22.99
2022-09-14T07:23:33.750Z,22.98
2022-09-14T07:26:01.928Z,22.96
2022-09-14T07:28:29.068Z,22.89
2022-09-14T07:30:59.026Z,22.78
2022-09-14T07:33:26.746Z,22.80
2022-09-14T07:35:54.824Z,22.81
2022-09-14T07:38:41.517Z,22.84
2022-09-14T07:41:09.394Z,23.02
2022-09-14T07:43:36.630Z,23.08
2022-09-14T07:46:04.653Z,23.09
2022-09-14T07:48:33.061Z,23.25
2022-09-14T07:51:00.934Z,23.22
2022-09-14T07:53:28.598Z,23.20
2022-09-14T07:55:58.456Z,23.23
2022-09-14T07:58:25.849Z,23.21
2022-09-14T08:00:57.499Z,23.29
2022-09-14T08:03:24.729Z,23.39
2022-09-14T08:06:01.776Z,23.44
2022-09-14T08:08:30.494Z,23.56
2022-09-14T08:11:08.363Z,23.77
2022-09-14T08:13:35.802Z,23.89
2022-09-14T08:16:03.510Z,23.96
2022-09-14T08:18:31.259Z,24.08
2022-09-14T08:21:03.349Z,24.16
2022-09-14T08:23:30.543Z,24.18
2022-09-14T08:26:01.902Z,23.96
2022-09-14T08:28:29.075Z,23.98
2022-09-14T08:30:56.319Z,23.94
2022-09-14T08:33:23.544Z,24.03
2022-09-14T08:35:58.492Z,24.08
2022-09-14T08:38:25.800Z,24.07
2022-09-14T08:40:53.239Z,24.04
2022-09-14T08:43:22.980Z,24.08
2022-09-14T08:45:51.110Z,24.21
2022-09-14T08:48:26.881Z,24.25
2022-09-14T08:50:54.376Z,24.37
2022-09-14T08:53:24.502Z,24.25
2022-09-14T08:55:54.519Z,24.24
2022-09-14T08:58:31.110Z,24.41
2022-09-14T09:01:08.788Z,24.46
2022-09-14T09:03:42.266Z,24.50
2022-09-14T09:06:15.784Z,24.64
2022-09-14T09:08:49.495Z,24.66
2022-09-14T09:11:21.413Z,24.74
2022-09-14T09:13:49.941Z,24.62
2022-09-14T09:16:18.827Z,24.49
2022-09-14T09:18:48.142Z,24.39
2022-09-14T09:21:35.681Z,24.33
2022-09-14T09:24:16.553Z,24.34
2022-09-14T09:26:43.698Z,24.29
2022-09-14T09:29:11.593Z,24.32
2022-09-14T09:31:59.120Z,24.21
2022-09-14T09:34:48.185Z,24.06
2022-09-14T09:37:46.527Z,23.95
2022-09-14T09:40:15.571Z,23.88
2022-09-14T09:43:03.140Z,23.84
2022-09-14T09:45:46.467Z,23.87
2022-09-14T09:48:14.835Z,24.08
2022-09-14T09:51:01.430Z,24.30
2022-09-14T09:53:29.141Z,24.36
2022-09-14T09:55:56.635Z,24.50
2022-09-14T09:58:28.292Z,24.67
2022-09-14T10:01:00.381Z,24.89
2022-09-14T10:03:31.908Z,24.92
2022-09-14T10:06:02.091Z,24.93
2022-09-14T10:08:34.813Z,24.82
2022-09-14T10:11:03.430Z,24.84
2022-09-14T10:13:36.436Z,24.87
2022-09-14T10:16:15.005Z,25.02
2022-09-14T10:18:48.246Z,25.13
2022-09-14T10:21:18.773Z,25.24
2022-09-14T10:23:46.273Z,25.28
2022-09-14T10:26:17.163Z,25.28
2022-09-14T10:28:45.830Z,25.39
2022-09-14T10:31:17.128Z,25.49
2022-09-14T10:33:48.441Z,25.63
2022-09-14T10:36:31.021Z,25.64
2022-09-14T10:39:25.890Z,25.60
2022-09-14T10:41:57.697Z,25.75
2022-09-14T10:44:44.031Z,25.76
2022-09-14T10:47:21.500Z,25.59
2022-09-14T10:50:07.019Z,25.51
2022-09-14T10:52:50.465Z,25.50
2022-09-14T10:55:37.036Z,25.55
2022-09-14T10:58:04.421Z,25.59
2022-09-14T11:00:38.672Z,25.71
2022-09-14T11:03:24.259Z,25.78
2022-09-14T11:06:06.556Z,25.90
2022-09-14T11:08:40.018Z,25.96
2022-09-14T11:11:27.495Z,25.87
2022-09-14T11:14:02.214Z,25.85
2022-09-14T11:16:32.556Z,25.93
2022-09-14T11:19:23.094Z,26.01
2022-09-14T11:21:53.353Z,26.02
2022-09-14T11:24:33.399Z,26.02
2022-09-14T11:27:03.231Z,26.01
2022-09-14T11:29:33.025Z,26.03
2022-09-14T11:32:20.366Z,26.07
2022-09-14T11:37:52.595Z,26.31
2022-09-14T11:40:25.014Z,26.35
2022-09-14T11:42:58.387Z,26.37
2022-09-14T11:45:37.296Z,26.38
2022-09-14T11:48:42.263Z,26.42
2022-09-14T11:51:16.718Z,26.40
2022-09-14T11:53:44.086Z,26.40
2022-09-14T11:56:30.695Z,26.41
2022-09-14T11:59:04.168Z,26.34
2022-09-14T12:01:31.599Z,26.29
2022-09-14T12:04:02.012Z,26.26
2022-09-14T12:06:32.074Z,26.20
2022-09-14T12:09:11.202Z,26.22
2022-09-14T12:11:38.537Z,26.29
2022-09-14T12:14:23.709Z,26.35
2022-09-14T12:17:28.979Z,26.42
2022-09-14T12:19:59.623Z,26.48
2022-09-14T12:22:32.578Z,26.56
2022-09-14T12:25:08.640Z,26.67
2022-09-14T12:27:40.257Z,26.72
2022-09-14T12:30:26.325Z,26.69
2022-09-14T12:32:53.472Z,26.61
2022-09-14T12:35:32.789Z,26.56
2022-09-14T12:38:00.849Z,26.52
2022-09-14T12:40:36.414Z,26.53
2022-09-14T12:43:22.326Z,26.51
2022-09-14T12:46:00.947Z,26.50
2022-09-14T12:48:48.514Z,26.47
2022-09-14T12:51:15.707Z,26.44
2022-09-14T12:53:43.794Z,26.49
2022-09-14T12:56:18.929Z,26.59
2022-09-14T12:58:53.544Z,26.71
2022-09-14T13:01:28.697Z,26.77
2022-09-14T13:03:57.005Z,26.84
2022-09-14T13:06:26.987Z,26.88
2022-09-14T13:08:56.657Z,26.91
2022-09-14T13:11:42.127Z,26.87
2022-09-14T13:14:19.096Z,26.83
2022-09-14T13:16:47.973Z,26.78
2022-09-14T13:19:28.893Z,26.75
2022-09-14T13:21:57.305Z,26.76
2022-09-14T13:24:42.635Z,26.75
2022-09-14T13:27:28.889Z,26.72
2022-09-14T13:30:05.150Z,26.70
2022-09-14T13:32:34.080Z,26.71
2022-09-14T13:35:03.991Z,26.71
2022-09-14T13:37:31.573Z,26.76
2022-09-14T13:39:59.091Z,26.77
2022-09-14T13:42:26.563Z,26.76
2022-09-14T13:44:53.829Z,26.74
2022-09-14T13:47:22.420Z,26.75
2022-09-14T13:49:50.706Z,26.73
2022-09-14T13:52:34.011Z,26.71
2022-09-14T13:55:22.112Z,26.71
2022-09-14T13:58:13.161Z,26.68
2022-09-14T14:01:00.715Z,26.62
2022-09-14T14:03:29.401Z,26.57
2022-09-14T14:05:57.182Z,26.55
2022-09-14T14:08:24.544Z,26.51
2022-09-14T14:10:54.041Z,26.52
2022-09-14T14:13:24.714Z,26.52
2022-09-14T14:15:53.745Z,26.52
2022-09-14T14:18:36.163Z,26.49
2022-09-14T14:21:04.474Z,26.47
2022-09-14T14:23:31.671Z,26.44
2022-09-14T14:26:07.017Z,26.44
2022-09-14T14:28:34.328Z,26.43
2022-09-14T14:31:09.972Z,26.37
2022-09-14T14:33:43.853Z,26.34
2022-09-14T14:36:10.999Z,26.31
2022-09-14T14:38:45.075Z,26.28
2022-09-14T14:41:14.235Z,26.25
2022-09-14T14:43:42.188Z,26.23
2022-09-14T14:46:09.550Z,26.21
2022-09-14T14:48:37.204Z,26.16
2022-09-14T14:51:05.233Z,26.08
2022-09-14T14:53:32.437Z,26.05
2022-09-14T14:55:59.683Z,25.99
2022-09-14T14:58:26.979Z,25.96
2022-09-14T15:00:54.857Z,25.95
2022-09-14T15:03:22.294Z,25.95
2022-09-14T15:05:49.696Z,25.93
2022-09-14T15:08:17.869Z,25.89
2022-09-14T15:10:45.891Z,25.84
2022-09-14T15:13:13.348Z,25.81
2022-09-14T15:15:42.952Z,25.81
2022-09-14T15:18:10.262Z,25.78
2022-09-14T15:20:37.642Z,25.79
2022-09-14T15:23:04.922Z,25.78
2022-09-14T15:25:32.343Z,25.78
2022-09-14T15:28:00.125Z,25.80
2022-09-14T15:30:27.397Z,25.81
2022-09-14T15:32:54.670Z,25.82
2022-09-14T15:35:54.993Z,25.82
2022-09-14T15:38:22.444Z,25.79
2022-09-14T15:40:49.695Z,25.75
2022-09-14T15:43:17.112Z,25.69
2022-09-14T15:45:44.425Z,25.64
2022-09-14T15:48:12.877Z,25.62
2022-09-14T15:50:44.431Z,25.57
2022-09-14T15:53:12.594Z,25.51
2022-09-14T15:55:44.108Z,25.44
2022-09-14T15:58:11.628Z,25.44
2022-09-14T16:00:42.443Z,25.48
2022-09-14T16:03:09.688Z,25.54
2022-09-14T16:05:38.053Z,25.31
2022-09-14T16:08:05.193Z,25.05
2022-09-14T16:10:32.513Z,24.90
2022-09-14T16:12:59.720Z,24.83
2022-09-14T16:15:26.918Z,24.84
2022-09-14T16:17:55.436Z,25.00
2022-09-14T16:20:23.160Z,24.93
2022-09-14T16:22:50.732Z,25.03
2022-09-14T16:25:18.387Z,25.07
2022-09-14T16:27:45.651Z,25.17
2022-09-14T16:30:13.036Z,25.23
2022-09-14T16:32:40.272Z,25.31
2022-09-14T16:35:08.431Z,25.15
2022-09-14T16:37:35.836Z,25.00
2022-09-14T16:40:03.704Z,24.84
2022-09-14T16:42:30.973Z,24.79
2022-09-14T16:44:58.159Z,24.69
2022-09-14T16:47:25.792Z,24.62
2022-09-14T16:49:53.299Z,24.55
2022-09-14T16:52:20.494Z,24.55
2022-09-14T16:54:47.710Z,24.53
2022-09-14T16:57:14.910Z,24.51
2022-09-14T16:59:42.165Z,24.50
2022-09-14T17:02:12.543Z,24.66
2022-09-14T17:04:39.819Z,24.76
2022-09-14T17:07:07.223Z,24.81
2022-09-14T17:09:34.429Z,24.86
2022-09-14T17:12:01.761Z,24.90
2022-09-14T17:14:30.728Z,24.82
2022-09-14T17:16:58.702Z,24.77
2022-09-14T17:19:26.783Z,24.67
2022-09-14T17:21:54.217Z,24.69
2022-09-14T17:24:21.768Z,24.91
2022-09-14T17:26:49.465Z,24.90
2022-09-14T17:29:16.753Z,24.58
2022-09-14T17:31:44.892Z,24.31
2022-09-14T17:34:13.452Z,24.18
2022-09-14T17:36:40.765Z,24.25
2022-09-14T17:39:11.912Z,24.26
2022-09-14T17:41:40.278Z,24.30
2022-09-14T17:44:10.587Z,24.25
2022-09-14T17:46:45.989Z,24.17
2022-09-14T17:49:16.143Z,24.09
2022-09-14T17:51:45.253Z,24.15
2022-09-14T17:54:13.281Z,24.27
2022-09-14T17:56:41.012Z,24.45
2022-09-14T17:59:10.969Z,24.37
2022-09-14T18:01:38.269Z,24.53
2022-09-14T18:04:07.489Z,24.47
2022-09-14T18:06:36.008Z,24.31
2022-09-14T18:09:07.882Z,24.14
2022-09-14T18:11:36.415Z,23.98
2022-09-14T18:14:04.033Z,24.05
2022-09-14T18:16:31.718Z,24.06
2022-09-14T18:18:59.158Z,24.06
2022-09-14T18:21:26.459Z,24.00
2022-09-14T18:23:54.395Z,23.98
2022-09-14T18:26:22.324Z,24.05
2022-09-14T18:28:50.966Z,23.97
2022-09-14T18:31:19.902Z,24.07
2022-09-14T18:33:52.044Z,24.05
2022-09-14T18:36:20.179Z,24.09
2022-09-14T18:38:48.665Z,23.97
2022-09-14T18:41:16.604Z,23.82
2022-09-14T18:43:47.877Z,23.77
2022-09-14T18:46:15.419Z,23.65
2022-09-14T18:48:45.564Z,23.66
2022-09-14T18:51:14.085Z,23.62
2022-09-14T18:53:41.915Z,23.55
2022-09-14T18:56:10.856Z,23.49
2022-09-14T18:58:39.817Z,23.66
2022-09-14T19:01:07.993Z,23.70
2022-09-14T19:03:35.907Z,23.60
2022-09-14T19:06:07.317Z,23.60
2022-09-14T19:08:34.835Z,23.71
2022-09-14T19:11:09.645Z,23.73
2022-09-14T19:13:37.339Z,23.59
2022-09-14T19:16:05.374Z,23.46
2022-09-14T19:18:33.439Z,23.41
2022-09-14T19:21:08.109Z,23.48
2022-09-14T19:23:36.365Z,23.35
2022-09-14T19:26:08.100Z,23.34
2022-09-14T19:28:35.682Z,23.49
2022-09-14T19:31:10.165Z,23.50
2022-09-14T19:33:39.241Z,23.28
2022-09-14T19:36:10.761Z,23.06
2022-09-14T19:38:38.404Z,22.89
2022-09-14T19:41:06.004Z,23.03
2022-09-14T19:43:33.641Z,23.04
2022-09-14T19:46:05.258Z,23.07
2022-09-14T19:48:33.061Z,23.09
2022-09-14T19:51:01.157Z,23.18
2022-09-14T19:53:29.105Z,23.16
2022-09-14T19:55:56.504Z,23.04
2022-09-14T19:58:26.164Z,23.14
2022-09-14T20:00:54.595Z,23.24
2022-09-14T20:03:22.565Z,23.23
2022-09-14T20:05:58.949Z,23.06
2022-09-14T20:08:26.255Z,22.96
2022-09-14T20:10:53.504Z,22.96
2022-09-14T20:13:20.866Z,23.01
2022-09-14T20:15:48.112Z,23.08
2022-09-14T20:18:15.355Z,23.12
2022-09-14T20:20:42.713Z,23.14
2022-09-14T20:23:11.266Z,23.18
2022-09-14T20:25:38.536Z,23.24
2022-09-14T20:28:05.727Z,23.08
2022-09-14T20:30:33.098Z,22.81
2022-09-14T20:33:00.445Z,22.82
2022-09-14T20:35:29.607Z,22.89
2022-09-14T20:37:56.845Z,22.91
2022-09-14T20:40:24.579Z,22.82
2022-09-14T20:42:51.815Z,22.77
2022-09-14T20:45:19.172Z,22.76
2022-09-14T20:47:46.363Z,22.89
2022-09-14T20:50:13.775Z,22.78
2022-09-14T20:52:40.985Z,22.71
2022-09-14T20:55:08.867Z,22.69
2022-09-14T20:57:36.014Z,22.69
2022-09-14T21:00:03.452Z,22.65
2022-09-14T21:02:31.112Z,22.48
2022-09-14T21:04:58.288Z,22.56
2022-09-14T21:07:25.601Z,22.86
2022-09-14T21:09:53.060Z,22.96
2022-09-14T21:12:20.282Z,22.95
2022-09-14T21:14:48.064Z,22.75
2022-09-14T21:17:17.136Z,22.50
2022-09-14T21:19:45.433Z,22.28
2022-09-14T21:22:12.742Z,22.22
2022-09-14T21:24:40.008Z,22.28
2022-09-14T21:27:07.771Z,22.38
2022-09-14T21:29:34.981Z,22.45
2022-09-14T21:32:06.895Z,22.37
2022-09-14T21:34:36.197Z,22.34
2022-09-14T21:37:03.676Z,22.40
2022-09-14T21:39:31.087Z,22.34
2022-09-14T21:41:59.652Z,22.26
2022-09-14T21:44:28.405Z,22.35
2022-09-14T21:46:55.633Z,22.37
2022-09-14T21:49:22.908Z,22.25
2022-09-14T21:51:50.150Z,22.04
2022-09-14T21:54:17.596Z,22.12
2022-09-14T21:56:45.503Z,22.26
2022-09-14T21:59:17.377Z,22.13
2022-09-14T22:01:45.059Z,22.00
2022-09-14T22:04:14.130Z,21.99
2022-09-14T22:06:41.398Z,21.96
2022-09-14T22:09:08.649Z,22.05
2022-09-14T22:11:37.087Z,21.79
2022-09-14T22:14:06.424Z,21.79
2022-09-14T22:16:35.253Z,21.80
2022-09-14T22:19:04.580Z,21.84
2022-09-14T22:21:34.703Z,21.81
2022-09-14T22:24:03.343Z,21.68
2022-09-14T22:26:31.573Z,21.57
2022-09-14T22:28:59.197Z,21.44
2022-09-14T22:31:27.224Z,21.29
2022-09-14T22:33:55.375Z,21.37
2022-09-14T22:36:25.725Z,21.51
2022-09-14T22:38:59.371Z,21.58
2022-09-14T22:41:27.661Z,21.64
2022-09-14T22:43:55.352Z,21.52
2022-09-14T22:46:23.015Z,21.32
2022-09-14T22:48:50.898Z,21.27
2022-09-14T22:51:20.543Z,21.31
2022-09-14T22:54:06.429Z,21.36
2022-09-14T22:56:35.409Z,21.58
2022-09-14T22:59:04.306Z,21.94
2022-09-14T23:01:32.929Z,21.84
2022-09-14T23:04:02.025Z,21.54
2022-09-14T23:06:30.209Z,21.52
2022-09-14T23:08:57.381Z,21.66
2022-09-14T23:11:24.800Z,21.71
2022-09-14T23:13:51.965Z,21.79
2022-09-14T23:16:20.288Z,21.93
2022-09-14T23:18:54.708Z,21.73
2022-09-14T23:21:22.085Z,21.49
2022-09-14T23:23:53.196Z,21.51
2022-09-14T23:26:21.011Z,21.50
2022-09-14T23:29:07.331Z,21.45
2022-09-14T23:31:35.109Z,21.45
2022-09-14T23:34:02.941Z,21.68
2022-09-14T23:36:30.622Z,21.77
2022-09-14T23:38:58.074Z,21.53
2022-09-14T23:41:25.826Z,21.49
2022-09-14T23:43:53.013Z,21.31
2022-09-14T23:46:20.946Z,21.39
2022-09-14T23:48:48.237Z,21.38
2022-09-14T23:51:15.782Z,21.39
2022-09-14T23:53:43.282Z,21.54
2022-09-14T23:56:11.075Z,21.69
2022-09-14T23:58:38.358Z,21.64
